Time;durP1;ratioP1;P1;durP2;ratioP2;P2;SDS_P1;SDS_P2;PMS_P1;PMS_P2;Temp;Humidity;BMP_temperature;BMP_pressure;BME280_temperature;BME280_humidity;BME280_pressure;Samples;Min_cycle;Max_cycle;Signal;HPM_P1;HPM_P2
2021/12/26 00:00:34;;;;;;;79.05;40.28;;;10.80;99.90;;;;;;5033291;28;20529;-73
2021/12/26 00:03:00;;;;;;;68.88;39.75;;;10.80;99.90;;;;;;5035718;28;20025;-73
2021/12/26 00:05:27;;;;;;;75.75;46.05;;;10.80;99.90;;;;;;5030186;28;20036;-74
2021/12/26 00:07:53;;;;;;;80.20;47.05;;;10.90;99.90;;;;;;5031004;28;20029;-74
2021/12/26 00:10:21;;;;;;;81.05;49.08;;;10.70;99.90;;;;;;5031697;28;20033;-74
2021/12/26 00:12:47;;;;;;;89.65;51.80;;;10.70;99.90;;;;;;5032945;28;20052;-74
2021/12/26 00:15:13;;;;;;;93.18;51.60;;;10.80;99.90;;;;;;5034632;28;20017;-74
2021/12/26 00:17:39;;;;;;;97.50;54.53;;;10.80;99.90;;;;;;5031885;28;20041;-73
2021/12/26 00:20:08;;;;;;;89.35;51.78;;;10.80;99.90;;;;;;5033220;28;20030;-74
2021/12/26 00:22:34;;;;;;;93.18;52.47;;;10.90;99.90;;;;;;5028164;28;20084;-73
2021/12/26 00:25:00;;;;;;;84.45;50.70;;;10.80;99.90;;;;;;5005995;28;20440;-74
2021/12/26 00:27:26;;;;;;;89.82;53.35;;;10.90;99.90;;;;;;5034336;28;20057;-74
2021/12/26 00:29:52;;;;;;;90.20;50.17;;;10.80;99.90;;;;;;5028337;28;20072;-74
2021/12/26 00:32:18;;;;;;;90.85;49.85;;;10.80;99.90;;;;;;5034154;28;20047;-74
2021/12/26 00:34:44;;;;;;;93.80;50.50;;;10.70;99.90;;;;;;5026428;28;20049;-74
2021/12/26 00:37:11;;;;;;;92.95;48.03;;;10.70;99.90;;;;;;5030571;28;20029;-74
2021/12/26 00:39:37;;;;;;;86.70;46.83;;;10.70;99.90;;;;;;5022756;28;20028;-74
2021/12/26 00:42:03;;;;;;;89.60;46.45;;;10.60;99.90;;;;;;5023387;28;20030;-73
2021/12/26 00:44:29;;;;;;;91.75;45.83;;;10.60;99.90;;;;;;5032194;28;20104;-74
2021/12/26 00:46:55;;;;;;;91.80;46.88;;;10.60;99.90;;;;;;5028366;28;20554;-74
2021/12/26 00:49:22;;;;;;;77.00;44.83;;;10.50;99.90;;;;;;5028607;28;20036;-73
2021/12/26 00:51:48;;;;;;;88.90;46.85;;;10.40;99.90;;;;;;5028565;28;20033;-74
2021/12/26 00:54:14;;;;;;;86.43;45.25;;;10.40;99.90;;;;;;5033512;28;20029;-73
2021/12/26 00:56:39;;;;;;;73.45;41.70;;;10.40;99.90;;;;;;5030748;28;20040;-73
2021/12/26 00:59:05;;;;;;;80.07;44.17;;;10.40;99.90;;;;;;5029653;28;20507;-73
2021/12/26 01:01:31;;;;;;;75.65;43.17;;;10.30;99.90;;;;;;5026816;28;20387;-74
2021/12/26 01:03:57;;;;;;;68.20;39.97;;;10.30;99.90;;;;;;5028187;28;20025;-74
2021/12/26 01:06:24;;;;;;;64.18;35.88;;;10.40;99.90;;;;;;5031795;28;20578;-74
2021/12/26 01:08:51;;;;;;;65.55;36.42;;;10.40;99.90;;;;;;5029384;28;20033;-74
2021/12/26 01:11:48;;;;;;;62.53;36.25;;;10.50;99.90;;;;;;5032028;28;20109;-74
2021/12/26 01:14:10;;;;;;;65.25;36.50;;;10.50;99.90;;;;;;5028045;28;20045;-74
2021/12/26 01:16:37;;;;;;;65.05;33.63;;;10.40;99.90;;;;;;5026606;28;20059;-74
2021/12/26 01:19:17;;;;;;;57.83;33.85;;;10.40;99.90;;;;;;5026070;28;20061;-73
2021/12/26 01:21:44;;;;;;;61.65;32.40;;;10.40;99.90;;;;;;5029099;28;20111;-73
2021/12/26 01:24:14;;;;;;;52.33;29.13;;;10.30;99.90;;;;;;5035414;28;20053;-74
2021/12/26 01:26:41;;;;;;;48.67;28.92;;;10.20;99.90;;;;;;5037027;28;20060;-73
2021/12/26 01:29:07;;;;;;;50.88;30.10;;;10.10;99.90;;;;;;5037897;28;20021;-74
2021/12/26 01:31:33;;;;;;;49.67;29.65;;;10.10;99.90;;;;;;5033356;28;20043;-74
2021/12/26 01:34:03;;;;;;;44.72;26.13;;;10.00;99.90;;;;;;5031261;28;20072;-74
2021/12/26 01:36:31;;;;;;;64.00;28.05;;;10.00;99.90;;;;;;5034116;28;20496;-74
2021/12/26 01:38:59;;;;;;;55.15;26.00;;;9.90;99.90;;;;;;5036231;28;20373;-73
2021/12/26 01:41:25;;;;;;;59.03;26.27;;;9.80;99.90;;;;;;5037893;28;20109;-74
2021/12/26 01:43:56;;;;;;;53.25;26.60;;;9.70;99.90;;;;;;5037588;28;20449;-74
2021/12/26 01:46:23;;;;;;;42.15;27.55;;;9.70;99.90;;;;;;5028770;28;20033;-74
2021/12/26 01:49:00;;;;;;;38.40;25.40;;;9.70;99.90;;;;;;5031460;28;20060;-74
2021/12/26 01:51:25;;;;;;;42.08;25.45;;;9.70;99.90;;;;;;5016920;28;20058;-74
2021/12/26 01:53:51;;;;;;;38.33;26.50;;;9.70;99.90;;;;;;5036809;28;20118;-73
2021/12/26 01:56:17;;;;;;;36.08;24.40;;;9.70;99.90;;;;;;5033804;28;20395;-73
2021/12/26 01:58:42;;;;;;;34.40;24.92;;;9.70;99.90;;;;;;5027397;28;20029;-73
2021/12/26 02:01:11;;;;;;;34.75;24.30;;;9.70;99.90;;;;;;5026818;28;20495;-73
2021/12/26 02:03:39;;;;;;;35.63;24.27;;;9.60;99.90;;;;;;5027620;28;20021;-74
2021/12/26 02:06:07;;;;;;;33.58;24.55;;;9.60;99.90;;;;;;5028409;28;20133;-74
2021/12/26 02:08:33;;;;;;;37.53;24.42;;;9.70;99.90;;;;;;5032731;28;20104;-74
2021/12/26 02:11:02;;;;;;;34.05;23.88;;;9.60;99.90;;;;;;5028941;28;20494;-74
2021/12/26 02:13:28;;;;;;;39.03;24.92;;;9.60;99.90;;;;;;5028968;28;20041;-73
2021/12/26 02:15:55;;;;;;;35.35;25.40;;;9.50;99.90;;;;;;5029532;28;20017;-73
2021/12/26 02:18:21;;;;;;;32.53;23.88;;;9.50;99.90;;;;;;5030459;28;20506;-73
2021/12/26 02:23:42;;;;;;;31.00;23.15;;;9.50;99.90;;;;;;5032483;28;20459;-74
2021/12/26 02:28:38;;;;;;;32.25;22.10;;;9.50;99.90;;;;;;5024575;28;20068;-73
2021/12/26 02:31:05;;;;;;;32.15;22.55;;;9.40;99.90;;;;;;5027072;28;20437;-73
2021/12/26 02:33:31;;;;;;;29.88;21.65;;;9.40;99.90;;;;;;5027155;28;20041;-74
2021/12/26 02:35:57;;;;;;;30.05;21.48;;;9.40;99.90;;;;;;5035165;28;20485;-74
2021/12/26 02:38:23;;;;;;;29.55;21.40;;;9.40;99.90;;;;;;5032261;28;20040;-74
2021/12/26 02:40:51;;;;;;;27.65;20.52;;;9.40;99.90;;;;;;5037255;28;20433;-73
2021/12/26 02:43:20;;;;;;;30.02;21.33;;;9.40;99.90;;;;;;5033885;28;20026;-73
2021/12/26 02:45:46;;;;;;;28.88;20.15;;;9.40;99.90;;;;;;5035927;28;20521;-73
2021/12/26 02:48:13;;;;;;;27.40;19.55;;;9.30;99.90;;;;;;5038600;28;20048;-74
2021/12/26 02:50:40;;;;;;;25.77;19.45;;;9.30;99.90;;;;;;5034644;28;20067;-74
2021/12/26 02:53:09;;;;;;;26.85;19.23;;;9.20;99.90;;;;;;5040379;28;20069;-74
2021/12/26 02:55:35;;;;;;;25.67;19.70;;;9.20;99.90;;;;;;5034626;28;20029;-73
2021/12/26 02:58:09;;;;;;;25.13;17.88;;;9.20;99.90;;;;;;5034381;28;20545;-73
2021/12/26 03:00:37;;;;;;;;;;;9.10;99.90;;;;;;5029826;28;20553;-73
2021/12/26 03:03:05;;;;;;;26.48;18.08;;;9.20;99.90;;;;;;5038459;28;19916;-74
2021/12/26 03:05:35;;;;;;;25.02;18.80;;;9.10;99.90;;;;;;5041015;28;20022;-74
2021/12/26 03:08:02;;;;;;;27.98;19.67;;;9.10;99.90;;;;;;5039365;28;20021;-73
2021/12/26 03:10:28;;;;;;;28.45;19.67;;;9.10;99.90;;;;;;5030570;28;20083;-74
2021/12/26 03:12:58;;;;;;;27.55;18.77;;;9.10;99.90;;;;;;5030108;28;20063;-74
2021/12/26 03:15:25;;;;;;;27.58;17.67;;;9.10;99.90;;;;;;5031974;28;20040;-73
2021/12/26 03:17:52;;;;;;;24.52;19.55;;;9.10;99.90;;;;;;5032053;28;20569;-74
2021/12/26 03:20:20;;;;;;;28.85;21.80;;;9.10;99.90;;;;;;5032780;28;20025;-74
2021/12/26 03:22:46;;;;;;;59.50;23.15;;;9.10;99.90;;;;;;5023209;28;20029;-74
2021/12/26 03:25:18;;;;;;;36.22;21.20;;;8.90;99.90;;;;;;5031385;28;20022;-74
2021/12/26 03:27:44;;;;;;;25.15;19.13;;;8.80;99.90;;;;;;5031761;28;20072;-74
2021/12/26 03:30:12;;;;;;;25.88;19.08;;;8.80;99.90;;;;;;5030995;28;20050;-74
2021/12/26 03:32:38;;;;;;;25.00;18.95;;;8.80;99.90;;;;;;5032791;28;20037;-74
2021/12/26 03:35:04;;;;;;;27.92;19.92;;;8.70;99.90;;;;;;5031810;28;20483;-74
2021/12/26 03:37:30;;;;;;;24.92;18.45;;;8.70;99.90;;;;;;5030862;28;20113;-74
2021/12/26 03:39:56;;;;;;;24.10;17.83;;;8.80;99.90;;;;;;5031130;28;20104;-73
2021/12/26 03:42:22;;;;;;;26.27;18.20;;;8.80;99.90;;;;;;5030105;28;20121;-74
2021/12/26 03:44:49;;;;;;;23.55;17.67;;;8.80;99.90;;;;;;5024990;28;20017;-73
2021/12/26 03:47:14;;;;;;;26.27;18.88;;;8.90;99.90;;;;;;5032686;28;20018;-73
2021/12/26 03:49:40;;;;;;;24.98;18.77;;;8.90;99.90;;;;;;5033543;28;20082;-73
2021/12/26 03:52:06;;;;;;;23.02;17.48;;;8.90;99.90;;;;;;5032864;28;20369;-74
2021/12/26 03:54:32;;;;;;;24.63;18.00;;;8.90;99.90;;;;;;5035193;28;20025;-73
2021/12/26 03:56:58;;;;;;;22.10;17.08;;;8.90;99.90;;;;;;5037447;28;20404;-74
2021/12/26 03:59:24;;;;;;;25.52;17.35;;;8.70;99.90;;;;;;5040006;28;20418;-73
2021/12/26 04:01:49;;;;;;;24.83;17.48;;;8.80;99.90;;;;;;5031648;28;20026;-73
2021/12/26 04:04:15;;;;;;;24.67;18.15;;;8.80;99.90;;;;;;5029973;28;20104;-73
2021/12/26 04:06:41;;;;;;;24.63;17.35;;;8.80;99.90;;;;;;5028322;28;20029;-74
2021/12/26 04:09:08;;;;;;;23.25;17.67;;;8.80;99.90;;;;;;5029570;28;20044;-74
2021/12/26 04:11:35;;;;;;;25.45;17.67;;;8.80;99.90;;;;;;5032330;28;20522;-73
2021/12/26 04:14:02;;;;;;;24.60;16.95;;;8.80;99.90;;;;;;5030799;28;20033;-74
2021/12/26 04:16:28;;;;;;;23.65;17.73;;;8.80;99.90;;;;;;5025627;28;20020;-74
2021/12/26 04:18:54;;;;;;;22.52;17.02;;;8.80;99.90;;;;;;5030013;28;20472;-74
2021/12/26 04:21:19;;;;;;;20.80;16.05;;;8.80;99.90;;;;;;5029020;28;20400;-73
2021/12/26 04:23:45;;;;;;;20.10;15.45;;;8.90;99.90;;;;;;5030090;28;20029;-74
2021/12/26 04:26:11;;;;;;;21.10;16.10;;;8.90;99.90;;;;;;5024490;28;20065;-74
2021/12/26 04:28:36;;;;;;;22.13;16.75;;;8.80;99.90;;;;;;5022688;28;20453;-74
2021/12/26 04:31:03;;;;;;;24.55;16.20;;;8.80;99.90;;;;;;5029983;28;20034;-73
2021/12/26 04:33:28;;;;;;;19.60;16.17;;;8.80;99.90;;;;;;5028964;28;20091;-73
2021/12/26 04:35:54;;;;;;;20.80;15.93;;;8.80;99.90;;;;;;5028475;28;20026;-73
2021/12/26 04:38:20;;;;;;;22.67;16.50;;;8.80;99.90;;;;;;5032451;28;20512;-74
2021/12/26 04:40:46;;;;;;;20.83;16.15;;;8.70;99.90;;;;;;5021985;28;20151;-74
2021/12/26 04:43:11;;;;;;;20.52;14.55;;;8.70;99.90;;;;;;5028625;28;20037;-73
2021/12/26 04:45:37;;;;;;;18.80;15.00;;;8.80;99.90;;;;;;5028932;28;20148;-73
2021/12/26 04:48:03;;;;;;;18.40;14.00;;;8.80;99.90;;;;;;5029025;28;20179;-73
2021/12/26 04:50:29;;;;;;;20.55;14.48;;;8.80;99.90;;;;;;5019271;28;20433;-74
2021/12/26 04:52:56;;;;;;;17.45;14.95;;;8.80;99.90;;;;;;5022202;28;20041;-73
2021/12/26 04:55:25;;;;;;;19.25;14.90;;;8.80;99.90;;;;;;5028149;28;20029;-74
2021/12/26 04:57:51;;;;;;;19.30;14.63;;;8.80;99.90;;;;;;5028555;28;20029;-74
2021/12/26 05:00:20;;;;;;;17.17;13.73;;;8.80;99.90;;;;;;5024964;28;20104;-73
2021/12/26 05:02:47;;;;;;;18.70;14.60;;;8.80;99.90;;;;;;5020325;28;20500;-74
2021/12/26 05:05:13;;;;;;;18.80;15.32;;;8.80;99.90;;;;;;5028760;28;20515;-73
2021/12/26 05:07:41;;;;;;;21.05;14.73;;;8.80;99.90;;;;;;5008707;28;20025;-73
2021/12/26 05:10:09;;;;;;;21.13;15.02;;;8.80;99.90;;;;;;5025756;28;20025;-74
2021/12/26 05:12:36;;;;;;;19.15;14.57;;;8.90;99.90;;;;;;5025392;28;20038;-74
2021/12/26 05:15:03;;;;;;;20.38;13.77;;;9.00;99.90;;;;;;5028334;28;20033;-74
2021/12/26 05:17:30;;;;;;;19.13;14.52;;;9.00;99.90;;;;;;5020802;28;20033;-74
2021/12/26 05:19:56;;;;;;;17.75;13.55;;;9.00;99.90;;;;;;5025527;28;20450;-73
2021/12/26 05:22:22;;;;;;;18.05;14.18;;;9.00;99.90;;;;;;5028882;28;20034;-73
2021/12/26 05:24:48;;;;;;;19.42;16.27;;;8.90;99.90;;;;;;5028571;28;20033;-73
2021/12/26 05:27:14;;;;;;;22.52;17.60;;;8.90;99.90;;;;;;5028642;28;20033;-73
2021/12/26 05:29:40;;;;;;;19.20;15.13;;;8.90;99.90;;;;;;5029802;28;20033;-74
2021/12/26 05:32:07;;;;;;;20.65;15.55;;;8.80;99.90;;;;;;5029611;28;20055;-73
2021/12/26 05:34:32;;;;;;;18.63;15.18;;;8.70;99.90;;;;;;5027704;28;20033;-74
2021/12/26 05:36:58;;;;;;;20.70;15.43;;;8.80;99.90;;;;;;5028426;28;20383;-74
2021/12/26 05:39:24;;;;;;;20.58;16.15;;;8.80;99.90;;;;;;5025437;28;20129;-74
2021/12/26 05:41:49;;;;;;;18.73;16.10;;;8.80;99.90;;;;;;5020444;28;20538;-73
2021/12/26 05:44:15;;;;;;;19.95;16.25;;;8.80;99.90;;;;;;5037391;28;20044;-73
2021/12/26 05:46:41;;;;;;;16.85;14.75;;;8.90;99.90;;;;;;5029621;28;20435;-73
2021/12/26 05:49:07;;;;;;;19.60;16.45;;;8.80;99.90;;;;;;5028784;28;20554;-73
2021/12/26 05:51:34;;;;;;;16.67;14.40;;;8.80;99.90;;;;;;5033648;28;20018;-73
2021/12/26 05:54:00;;;;;;;18.38;15.85;;;8.70;99.90;;;;;;5035794;28;20057;-74
2021/12/26 05:56:26;;;;;;;17.88;15.13;;;8.60;99.90;;;;;;5034100;28;20025;-73
2021/12/26 05:58:51;;;;;;;18.73;15.52;;;8.70;99.90;;;;;;5029646;28;20040;-73
2021/12/26 06:01:17;;;;;;;20.00;16.35;;;8.80;99.90;;;;;;5028935;28;20041;-73
2021/12/26 06:03:43;;;;;;;18.23;15.10;;;8.70;99.90;;;;;;5032261;28;20034;-73
2021/12/26 06:06:09;;;;;;;19.65;16.45;;;8.60;99.90;;;;;;5034179;28;20033;-73
2021/12/26 06:08:35;;;;;;;19.33;15.60;;;8.70;99.90;;;;;;5034778;28;20029;-74
2021/12/26 06:11:00;;;;;;;20.25;16.65;;;8.80;99.90;;;;;;5032550;28;20104;-73
2021/12/26 06:13:26;;;;;;;19.73;15.95;;;8.90;99.90;;;;;;5024956;28;21414;-73
2021/12/26 06:15:54;;;;;;;20.67;15.60;;;8.90;99.90;;;;;;5036392;28;20068;-73
2021/12/26 06:18:20;;;;;;;19.48;15.75;;;9.00;99.90;;;;;;5035910;28;20492;-74
2021/12/26 06:20:45;;;;;;;20.90;16.13;;;9.00;99.90;;;;;;5033025;28;20029;-74
2021/12/26 06:23:12;;;;;;;21.60;17.02;;;9.00;99.90;;;;;;5038108;28;20036;-73
2021/12/26 06:25:38;;;;;;;21.55;16.48;;;9.10;99.90;;;;;;5029848;28;20438;-73
2021/12/26 06:28:04;;;;;;;24.30;18.38;;;9.00;99.90;;;;;;5026291;28;20066;-74
2021/12/26 06:30:31;;;;;;;30.92;26.52;;;8.90;99.90;;;;;;5024717;28;20030;-72
2021/12/26 06:32:56;;;;;;;23.95;17.13;;;8.80;99.90;;;;;;5022200;28;20064;-76
2021/12/26 06:35:22;;;;;;;18.83;15.02;;;8.80;99.90;;;;;;5038051;28;20057;-74
2021/12/26 06:37:48;;;;;;;17.73;14.25;;;8.70;99.90;;;;;;5028875;28;20070;-74
2021/12/26 06:40:14;;;;;;;17.15;13.75;;;8.70;99.90;;;;;;5032828;28;20074;-74
2021/12/26 06:42:44;;;;;;;19.75;14.45;;;8.70;99.90;;;;;;5031815;28;20026;-74
2021/12/26 06:45:14;;;;;;;16.60;14.27;;;8.70;99.90;;;;;;5036709;28;20021;-73
2021/12/26 06:47:40;;;;;;;20.20;14.68;;;8.60;99.90;;;;;;5039345;28;20038;-73
2021/12/26 06:50:06;;;;;;;18.42;13.90;;;8.70;99.90;;;;;;5036522;28;20030;-74
2021/12/26 06:52:32;;;;;;;16.00;14.10;;;8.70;99.90;;;;;;5035960;28;20053;-74
2021/12/26 06:54:58;;;;;;;16.48;13.55;;;8.60;99.90;;;;;;5031576;28;20025;-74
2021/12/26 06:57:24;;;;;;;17.30;14.15;;;8.70;99.90;;;;;;5037377;28;20029;-74
2021/12/26 06:59:49;;;;;;;16.35;13.70;;;8.70;99.90;;;;;;5036899;28;20105;-73
2021/12/26 07:02:15;;;;;;;17.80;13.52;;;8.70;99.90;;;;;;5036807;28;20029;-74
2021/12/26 07:04:41;;;;;;;15.02;12.57;;;8.80;99.90;;;;;;5031576;28;20091;-73
2021/12/26 07:07:06;;;;;;;18.08;14.70;;;8.80;99.90;;;;;;5034902;28;20030;-72
2021/12/26 07:09:32;;;;;;;22.98;17.80;;;8.80;99.90;;;;;;5030625;28;20025;-76
2021/12/26 07:11:58;;;;;;;25.27;18.73;;;8.80;99.90;;;;;;5032627;28;20029;-74
2021/12/26 07:14:24;;;;;;;27.38;20.27;;;8.90;99.90;;;;;;5036858;28;20029;-73
2021/12/26 07:16:50;;;;;;;23.70;18.17;;;8.90;99.90;;;;;;5032056;28;20026;-73
2021/12/26 07:19:15;;;;;;;23.20;17.90;;;8.90;99.90;;;;;;5033647;28;20029;-72
2021/12/26 07:21:42;;;;;;;27.08;19.92;;;8.90;99.90;;;;;;5032342;28;20538;-73
2021/12/26 07:24:08;;;;;;;25.48;18.98;;;8.90;99.90;;;;;;5037117;28;20033;-73
2021/12/26 07:26:34;;;;;;;22.75;18.25;;;9.00;99.90;;;;;;5034638;28;20045;-73
2021/12/26 07:29:00;;;;;;;22.77;17.85;;;8.90;99.90;;;;;;5023291;28;20542;-72
2021/12/26 07:31:26;;;;;;;25.33;17.27;;;8.80;99.90;;;;;;5027961;28;20173;-77
2021/12/26 07:33:52;;;;;;;21.85;15.30;;;8.90;99.90;;;;;;5033735;28;20046;-79
2021/12/26 07:36:18;;;;;;;18.73;14.30;;;8.90;99.90;;;;;;5026038;28;20017;-78
2021/12/26 07:38:43;;;;;;;15.10;11.65;;;9.00;99.90;;;;;;5033579;28;20034;-81
2021/12/26 07:41:09;;;;;;;21.60;14.82;;;9.20;99.90;;;;;;5034407;28;20009;-76
2021/12/26 07:43:38;;;;;;;21.02;15.30;;;9.20;99.90;;;;;;5029176;28;20029;-77
2021/12/26 07:46:04;;;;;;;20.58;16.52;;;9.20;99.90;;;;;;5033320;28;20046;-77
2021/12/26 07:48:29;;;;;;;21.10;15.70;;;9.30;99.90;;;;;;5034762;28;20018;-77
2021/12/26 07:50:55;;;;;;;19.23;16.15;;;9.30;99.90;;;;;;5014200;28;20095;-77
2021/12/26 07:53:21;;;;;;;20.65;17.00;;;9.30;99.90;;;;;;5034670;28;20056;-76
2021/12/26 07:55:47;;;;;;;21.85;15.13;;;9.20;99.90;;;;;;5017486;28;20025;-77
2021/12/26 07:58:15;;;;;;;19.58;16.10;;;9.10;99.90;;;;;;5031818;28;20492;-76
2021/12/26 08:00:41;;;;;;;20.80;15.57;;;9.00;99.90;;;;;;5032616;28;20033;-77
2021/12/26 08:03:07;;;;;;;19.27;16.15;;;8.90;99.90;;;;;;5034474;28;20093;-77
2021/12/26 08:05:33;;;;;;;21.60;15.65;;;8.90;99.90;;;;;;5033218;28;20029;-77
2021/12/26 08:07:58;;;;;;;19.55;16.42;;;9.00;99.90;;;;;;5030166;28;20581;-77
2021/12/26 08:10:24;;;;;;;20.40;15.18;;;9.10;99.90;;;;;;5029713;28;20017;-77
2021/12/26 08:12:50;;;;;;;18.80;15.73;;;9.20;99.90;;;;;;5030605;28;20030;-77
2021/12/26 08:15:16;;;;;;;26.00;18.60;;;9.20;99.90;;;;;;5029720;28;20052;-77
2021/12/26 08:17:41;;;;;;;21.88;17.33;;;9.10;99.90;;;;;;5035978;28;20038;-77
2021/12/26 08:20:09;;;;;;;19.42;16.13;;;9.30;99.90;;;;;;5036711;28;20048;-78
2021/12/26 08:22:35;;;;;;;18.58;16.10;;;9.50;99.90;;;;;;5032253;28;20055;-78
2021/12/26 08:25:01;;;;;;;17.50;15.15;;;9.80;99.90;;;;;;5029053;28;20026;-78
2021/12/26 08:27:27;;;;;;;21.23;15.63;;;10.00;99.90;;;;;;5034827;28;20702;-78
2021/12/26 08:29:52;;;;;;;19.75;15.52;;;10.00;99.90;;;;;;5034925;28;20036;-77
2021/12/26 08:32:19;;;;;;;20.55;16.33;;;9.90;99.90;;;;;;5037177;28;20388;-77
2021/12/26 08:34:45;;;;;;;19.30;14.95;;;9.90;99.90;;;;;;5032644;28;20518;-78
2021/12/26 08:37:13;;;;;;;18.20;15.45;;;9.80;99.90;;;;;;5028322;28;20414;-83
2021/12/26 08:39:41;;;;;;;21.98;17.00;;;9.80;99.90;;;;;;5031988;28;20021;-85
2021/12/26 08:42:08;;;;;;;17.58;15.68;;;9.90;99.90;;;;;;5017693;28;20030;-83
2021/12/26 08:44:35;;;;;;;18.33;14.80;;;10.20;99.90;;;;;;5035506;28;20430;-84
2021/12/26 08:47:02;;;;;;;15.82;14.13;;;11.60;99.90;;;;;;5034417;28;20216;-84
2021/12/26 08:49:28;;;;;;;15.05;13.45;;;13.80;99.90;;;;;;5031682;28;20031;-75
2021/12/26 08:51:54;;;;;;;15.77;13.15;;;14.30;99.90;;;;;;5018264;28;20038;-74
2021/12/26 08:54:22;;;;;;;16.25;12.55;;;13.00;99.90;;;;;;5032197;28;20045;-74
2021/12/26 08:56:48;;;;;;;14.40;12.68;;;12.10;99.90;;;;;;5032308;28;20187;-74
2021/12/26 08:59:14;;;;;;;15.23;12.73;;;11.50;99.90;;;;;;5034075;28;20061;-73
2021/12/26 09:01:41;;;;;;;15.63;13.18;;;11.20;99.90;;;;;;5029094;28;20021;-74
2021/12/26 09:04:09;;;;;;;16.23;12.90;;;11.10;99.90;;;;;;5032292;28;20029;-74
2021/12/26 09:06:35;;;;;;;16.73;13.98;;;11.00;99.90;;;;;;5031569;28;20014;-74
2021/12/26 09:09:01;;;;;;;17.02;14.27;;;11.00;99.90;;;;;;5030833;28;20041;-72
2021/12/26 09:11:27;;;;;;;19.52;16.90;;;11.20;99.90;;;;;;5033012;28;20025;-73
2021/12/26 09:13:53;;;;;;;23.95;17.20;;;11.10;99.90;;;;;;5037226;28;20124;-71
2021/12/26 09:16:18;;;;;;;19.45;15.18;;;11.20;99.90;;;;;;5029980;28;20108;-72
2021/12/26 09:18:44;;;;;;;21.95;16.25;;;11.40;99.90;;;;;;5032332;28;20033;-71
2021/12/26 09:21:10;;;;;;;20.92;15.13;;;11.60;99.90;;;;;;5036456;28;20033;-72
2021/12/26 09:23:35;;;;;;;19.58;14.75;;;11.80;99.90;;;;;;5038444;28;20108;-73
2021/12/26 09:26:01;;;;;;;14.50;10.50;;;11.90;99.90;;;;;;5036841;28;20024;-73
2021/12/26 09:28:28;;;;;;;18.50;11.95;;;12.00;99.90;;;;;;5027937;28;20484;-73
2021/12/26 09:30:54;;;;;;;15.55;11.85;;;12.20;99.90;;;;;;5028039;28;20448;-73
2021/12/26 09:33:20;;;;;;;14.18;10.70;;;12.30;99.90;;;;;;5017652;28;20036;-73
2021/12/26 09:35:48;;;;;;;15.10;11.27;;;12.30;99.90;;;;;;5036391;28;20100;-74
2021/12/26 09:38:13;;;;;;;13.10;9.35;;;12.50;99.90;;;;;;5038290;28;20391;-73
2021/12/26 09:40:39;;;;;;;14.45;9.80;;;12.60;99.90;;;;;;5032778;28;20036;-76
2021/12/26 09:43:05;;;;;;;15.20;9.63;;;12.70;99.90;;;;;;5031286;28;20029;-79
2021/12/26 09:45:31;;;;;;;13.93;9.43;;;12.90;99.90;;;;;;5034585;28;20083;-74
2021/12/26 09:47:57;;;;;;;11.88;9.10;;;13.30;99.90;;;;;;5037163;28;20033;-74
2021/12/26 09:50:23;;;;;;;11.48;8.55;;;13.60;99.90;;;;;;5042821;28;20108;-74
2021/12/26 09:52:50;;;;;;;12.70;8.88;;;13.80;99.90;;;;;;5038795;28;20106;-72
2021/12/26 09:55:16;;;;;;;12.10;9.30;;;14.00;99.90;;;;;;5034129;28;20484;-73
2021/12/26 09:57:42;;;;;;;12.05;8.88;;;14.20;99.90;;;;;;5035441;28;20113;-74
2021/12/26 10:00:20;;;;;;;12.23;8.73;;;14.30;99.90;;;;;;5027487;28;20551;-74
2021/12/26 10:02:46;;;;;;;11.52;8.20;;;14.30;99.90;;;;;;5032014;28;20443;-73
2021/12/26 10:05:12;;;;;;;10.93;7.90;;;14.20;99.90;;;;;;5039361;28;20021;-72
2021/12/26 10:07:38;;;;;;;14.85;8.70;;;14.20;99.90;;;;;;5027122;28;20026;-74
2021/12/26 10:10:06;;;;;;;11.77;7.15;;;14.10;99.90;;;;;;5029330;28;20088;-73
2021/12/26 10:12:40;;;;;;;10.80;7.40;;;14.00;99.90;;;;;;5017845;28;20403;-72
2021/12/26 10:15:07;;;;;;;9.93;7.20;;;14.10;99.90;;;;;;5030444;28;20057;-72
2021/12/26 10:17:33;;;;;;;11.50;7.65;;;14.20;99.90;;;;;;5032660;28;20451;-71
2021/12/26 10:20:10;;;;;;;11.02;7.63;;;14.20;99.90;;;;;;5029209;28;20060;-71
2021/12/26 10:22:37;;;;;;;11.18;7.30;;;14.30;99.90;;;;;;5033084;28;20036;-72
2021/12/26 10:25:11;;;;;;;8.07;6.55;;;14.40;99.90;;;;;;5030939;28;20038;-72
2021/12/26 10:27:37;;;;;;;9.80;6.78;;;14.50;99.90;;;;;;5028212;28;20113;-71
2021/12/26 10:30:05;;;;;;;9.98;6.20;;;14.50;99.90;;;;;;5036145;28;20038;-71
2021/12/26 10:32:36;;;;;;;8.75;5.88;;;14.50;99.90;;;;;;5017700;28;20026;-72
2021/12/26 10:35:13;;;;;;;9.85;5.38;;;14.50;99.90;;;;;;5036503;28;20028;-73
2021/12/26 10:37:41;;;;;;;9.00;5.60;;;14.30;99.90;;;;;;5030732;28;20511;-73
2021/12/26 10:40:11;;;;;;;10.82;5.70;;;14.40;99.90;;;;;;5030663;28;20040;-73
2021/12/26 10:42:40;;;;;;;8.38;5.13;;;14.40;99.90;;;;;;5035109;28;20041;-73
2021/12/26 10:45:18;;;;;;;10.88;7.00;;;14.50;99.90;;;;;;5027675;28;20060;-73
2021/12/26 10:47:48;;;;;;;10.13;6.75;;;14.70;99.90;;;;;;5035578;28;20030;-73
2021/12/26 10:50:18;;;;;;;9.95;6.45;;;14.70;99.90;;;;;;5039099;28;20071;-73
2021/12/26 10:53:14;;;;;;;9.48;7.00;;;14.60;99.90;;;;;;5031088;28;20041;-73
2021/12/26 10:55:55;;;;;;;9.40;7.03;;;14.80;99.90;;;;;;5033533;28;20041;-71
2021/12/26 10:58:22;;;;;;;10.85;7.10;;;15.10;99.90;;;;;;5033517;28;20479;-72
2021/12/26 11:00:53;;;;;;;9.30;6.90;;;15.50;99.90;;;;;;5035921;28;20488;-71
2021/12/26 11:03:28;;;;;;;10.05;5.90;;;15.80;99.90;;;;;;5038231;28;20029;-75
2021/12/26 11:06:00;;;;;;;8.43;5.78;;;15.80;99.90;;;;;;5032720;28;20041;-72
2021/12/26 11:08:32;;;;;;;7.80;4.97;;;15.70;99.90;;;;;;5040944;28;20071;-73
2021/12/26 11:11:07;;;;;;;6.65;4.47;;;15.50;99.90;;;;;;5036903;28;20024;-72
2021/12/26 11:13:33;;;;;;;6.88;4.20;;;15.50;99.90;;;;;;5033152;28;20522;-73
2021/12/26 11:16:07;;;;;;;8.40;5.03;;;15.50;99.90;;;;;;5035464;28;20053;-73
2021/12/26 11:18:34;;;;;;;7.28;5.18;;;15.50;99.90;;;;;;5038119;28;20079;-72
2021/12/26 11:21:02;;;;;;;9.75;5.90;;;15.50;99.90;;;;;;5038260;28;20030;-72
2021/12/26 11:23:31;;;;;;;7.93;5.28;;;15.50;99.90;;;;;;5026110;28;20036;-72
2021/12/26 11:26:01;;;;;;;10.68;5.75;;;15.70;99.90;;;;;;5031237;28;20009;-72
2021/12/26 11:28:30;;;;;;;10.73;6.18;;;15.90;99.90;;;;;;5030774;28;20040;-71
2021/12/26 11:31:25;;;;;;;9.70;6.07;;;16.20;99.90;;;;;;5030708;28;20020;-72
2021/12/26 11:33:56;;;;;;;8.55;5.57;;;16.30;99.90;;;;;;5023965;28;20060;-73
2021/12/26 11:36:24;;;;;;;9.98;7.05;;;16.50;99.90;;;;;;5030259;28;20029;-72
2021/12/26 11:38:53;;;;;;;8.13;6.35;;;16.30;99.90;;;;;;5023425;28;20205;-72
2021/12/26 11:42:00;;;;;;;8.45;5.72;;;16.20;99.90;;;;;;5031269;28;20037;-73
2021/12/26 11:44:35;;;;;;;7.75;5.03;;;16.40;99.90;;;;;;5016562;28;20086;-72
2021/12/26 11:47:37;;;;;;;7.50;5.22;;;16.30;99.90;;;;;;5031016;28;20027;-72
2021/12/26 11:50:19;;;;;;;7.47;5.32;;;16.50;99.90;;;;;;5032114;28;20029;-72
2021/12/26 11:53:12;;;;;;;8.93;6.05;;;16.30;99.90;;;;;;5029773;28;20053;-72
2021/12/26 11:55:53;;;;;;;9.70;5.45;;;16.00;99.90;;;;;;5030224;28;20026;-73
2021/12/26 11:58:37;;;;;;;10.65;6.60;;;15.90;99.90;;;;;;5030303;28;20554;-72
2021/12/26 12:01:04;;;;;;;11.50;7.72;;;16.00;99.90;;;;;;5028908;28;20018;-72
2021/12/26 12:03:33;;;;;;;11.50;8.05;;;16.20;99.90;;;;;;5029703;28;20021;-72
2021/12/26 12:05:59;;;;;;;11.63;8.88;;;16.30;99.90;;;;;;5028909;28;20404;-72
2021/12/26 12:08:29;;;;;;;12.02;8.10;;;16.40;99.90;;;;;;5032395;28;20076;-72
2021/12/26 12:10:55;;;;;;;12.32;7.78;;;16.80;99.90;;;;;;5027736;28;20026;-81
2021/12/26 12:13:26;;;;;;;11.65;7.90;;;17.20;99.90;;;;;;5027698;28;20120;-69
2021/12/26 12:15:56;;;;;;;11.40;8.35;;;17.30;99.90;;;;;;5029046;28;20024;-72
2021/12/26 12:18:34;;;;;;;12.52;6.65;;;17.20;99.90;;;;;;5029722;28;20068;-71
2021/12/26 12:21:16;;;;;;;10.00;6.22;;;17.30;99.90;;;;;;5022404;28;20091;-72
2021/12/26 12:24:04;;;;;;;10.10;5.70;;;17.30;99.90;;;;;;5029969;28;20611;-69
2021/12/26 12:26:42;;;;;;;12.98;5.75;;;17.20;99.90;;;;;;5028879;28;20286;-69
2021/12/26 12:29:09;;;;;;;11.90;6.38;;;17.10;99.90;;;;;;5030820;28;20029;-72
2021/12/26 12:31:36;;;;;;;15.45;8.57;;;17.00;99.90;;;;;;5028340;28;20025;-72
2021/12/26 12:34:14;;;;;;;13.32;7.90;;;16.90;99.90;;;;;;5026043;28;20037;-73
2021/12/26 12:36:44;;;;;;;12.65;8.02;;;16.80;99.90;;;;;;5026018;28;20554;-72
2021/12/26 12:39:20;;;;;;;15.38;9.25;;;16.80;99.90;;;;;;5028238;28;20029;-72
2021/12/26 12:41:54;;;;;;;12.10;7.03;;;16.80;99.90;;;;;;5037737;28;20488;-72
2021/12/26 12:44:30;;;;;;;11.82;7.43;;;16.60;99.90;;;;;;5035808;28;20051;-72